sensor_id;sensor_type;location;lat;lon;timestamp;P1;durP1;ratioP1;P2;durP2;ratioP2
43628;SDS011;56545;48.224;11.678;2023-05-20T00:01:25;6.82;;;3.67;;
43628;SDS011;56545;48.224;11.678;2023-05-20T00:03:51;6.40;;;3.92;;
43628;SDS011;56545;48.224;11.678;2023-05-20T00:06:17;6.60;;;3.80;;
43628;SDS011;56545;48.224;11.678;2023-05-20T00:08:43;7.47;;;3.78;;
43628;SDS011;56545;48.224;11.678;2023-05-20T00:11:09;6.55;;;3.72;;
43628;SDS011;56545;48.224;11.678;2023-05-20T00:13:35;6.45;;;3.97;;
43628;SDS011;56545;48.224;11.678;2023-05-20T00:16:03;6.65;;;3.80;;
43628;SDS011;56545;48.224;11.678;2023-05-20T00:18:29;5.75;;;3.70;;
43628;SDS011;56545;48.224;11.678;2023-05-20T00:20:56;7.07;;;3.80;;
43628;SDS011;56545;48.224;11.678;2023-05-20T00:23:22;6.55;;;3.70;;
43628;SDS011;56545;48.224;11.678;2023-05-20T00:25:48;7.40;;;3.92;;
43628;SDS011;56545;48.224;11.678;2023-05-20T00:28:14;6.45;;;3.88;;
43628;SDS011;56545;48.224;11.678;2023-05-20T00:30:40;6.03;;;3.97;;
43628;SDS011;56545;48.224;11.678;2023-05-20T00:33:07;7.15;;;4.30;;
43628;SDS011;56545;48.224;11.678;2023-05-20T00:35:33;7.63;;;4.43;;
43628;SDS011;56545;48.224;11.678;2023-05-20T00:37:59;6.70;;;3.90;;
43628;SDS011;56545;48.224;11.678;2023-05-20T00:40:25;7.00;;;3.90;;
43628;SDS011;56545;48.224;11.678;2023-05-20T00:42:51;6.38;;;4.30;;
43628;SDS011;56545;48.224;11.678;2023-05-20T00:45:17;6.55;;;4.07;;
43628;SDS011;56545;48.224;11.678;2023-05-20T00:47:43;7.05;;;4.13;;
43628;SDS011;56545;48.224;11.678;2023-05-20T00:50:09;7.80;;;4.20;;
43628;SDS011;56545;48.224;11.678;2023-05-20T00:52:35;7.22;;;4.32;;
43628;SDS011;56545;48.224;11.678;2023-05-20T00:55:02;5.68;;;3.80;;
43628;SDS011;56545;48.224;11.678;2023-05-20T00:57:28;8.63;;;4.57;;
43628;SDS011;56545;48.224;11.678;2023-05-20T00:59:54;6.53;;;4.32;;
43628;SDS011;56545;48.224;11.678;2023-05-20T01:02:20;8.45;;;4.50;;
43628;SDS011;56545;48.224;11.678;2023-05-20T01:04:46;6.97;;;4.43;;
43628;SDS011;56545;48.224;11.678;2023-05-20T01:07:14;8.02;;;5.00;;
43628;SDS011;56545;48.224;11.678;2023-05-20T01:09:40;8.73;;;4.82;;
43628;SDS011;56545;48.224;11.678;2023-05-20T01:12:24;7.95;;;4.85;;
43628;SDS011;56545;48.224;11.678;2023-05-20T01:14:56;8.63;;;5.10;;
43628;SDS011;56545;48.224;11.678;2023-05-20T01:17:26;7.47;;;4.70;;
43628;SDS011;56545;48.224;11.678;2023-05-20T01:19:55;6.85;;;4.53;;
43628;SDS011;56545;48.224;11.678;2023-05-20T01:22:24;10.20;;;4.75;;
43628;SDS011;56545;48.224;11.678;2023-05-20T01:24:51;8.30;;;4.85;;
43628;SDS011;56545;48.224;11.678;2023-05-20T01:27:17;7.95;;;4.90;;
43628;SDS011;56545;48.224;11.678;2023-05-20T01:29:44;7.50;;;4.78;;
43628;SDS011;56545;48.224;11.678;2023-05-20T01:32:15;7.05;;;4.90;;
43628;SDS011;56545;48.224;11.678;2023-05-20T01:34:44;7.72;;;4.78;;
43628;SDS011;56545;48.224;11.678;2023-05-20T01:37:15;6.90;;;4.57;;
43628;SDS011;56545;48.224;11.678;2023-05-20T01:39:43;7.45;;;5.28;;
43628;SDS011;56545;48.224;11.678;2023-05-20T01:42:11;7.47;;;4.93;;
43628;SDS011;56545;48.224;11.678;2023-05-20T01:44:39;7.10;;;4.63;;
43628;SDS011;56545;48.224;11.678;2023-05-20T01:47:05;8.63;;;4.90;;
43628;SDS011;56545;48.224;11.678;2023-05-20T01:49:31;8.35;;;4.95;;
43628;SDS011;56545;48.224;11.678;2023-05-20T01:51:57;8.80;;;5.05;;
43628;SDS011;56545;48.224;11.678;2023-05-20T01:54:24;8.93;;;5.10;;
43628;SDS011;56545;48.224;11.678;2023-05-20T01:56:50;8.65;;;5.18;;
43628;SDS011;56545;48.224;11.678;2023-05-20T01:59:16;8.30;;;5.05;;
43628;SDS011;56545;48.224;11.678;2023-05-20T02:01:42;8.98;;;5.15;;
43628;SDS011;56545;48.224;11.678;2023-05-20T02:04:08;7.93;;;5.43;;
43628;SDS011;56545;48.224;11.678;2023-05-20T02:06:33;8.10;;;5.20;;
43628;SDS011;56545;48.224;11.678;2023-05-20T02:08:59;7.90;;;5.25;;
43628;SDS011;56545;48.224;11.678;2023-05-20T02:11:25;8.02;;;5.13;;
43628;SDS011;56545;48.224;11.678;2023-05-20T02:13:51;8.35;;;5.32;;
43628;SDS011;56545;48.224;11.678;2023-05-20T02:18:48;8.65;;;5.63;;
43628;SDS011;56545;48.224;11.678;2023-05-20T02:21:16;9.07;;;5.78;;
43628;SDS011;56545;48.224;11.678;2023-05-20T02:23:42;8.52;;;5.70;;
43628;SDS011;56545;48.224;11.678;2023-05-20T02:26:09;9.77;;;6.00;;
43628;SDS011;56545;48.224;11.678;2023-05-20T02:28:35;8.57;;;5.70;;
43628;SDS011;56545;48.224;11.678;2023-05-20T02:31:04;9.60;;;6.05;;
43628;SDS011;56545;48.224;11.678;2023-05-20T02:33:30;8.70;;;6.03;;
43628;SDS011;56545;48.224;11.678;2023-05-20T02:35:57;9.73;;;6.00;;
43628;SDS011;56545;48.224;11.678;2023-05-20T02:38:23;10.90;;;5.97;;
43628;SDS011;56545;48.224;11.678;2023-05-20T02:40:49;9.05;;;6.30;;
43628;SDS011;56545;48.224;11.678;2023-05-20T02:43:15;8.90;;;5.72;;
43628;SDS011;56545;48.224;11.678;2023-05-20T02:45:41;8.93;;;6.07;;
43628;SDS011;56545;48.224;11.678;2023-05-20T02:48:07;9.80;;;5.93;;
43628;SDS011;56545;48.224;11.678;2023-05-20T02:50:33;10.02;;;6.03;;
43628;SDS011;56545;48.224;11.678;2023-05-20T02:53:02;8.95;;;6.45;;
43628;SDS011;56545;48.224;11.678;2023-05-20T02:55:27;8.65;;;6.63;;
43628;SDS011;56545;48.224;11.678;2023-05-20T02:57:53;9.73;;;6.43;;
43628;SDS011;56545;48.224;11.678;2023-05-20T03:00:19;8.70;;;6.57;;
43628;SDS011;56545;48.224;11.678;2023-05-20T03:02:47;9.32;;;6.57;;
43628;SDS011;56545;48.224;11.678;2023-05-20T03:05:13;9.43;;;6.43;;
43628;SDS011;56545;48.224;11.678;2023-05-20T03:07:39;8.50;;;6.45;;
43628;SDS011;56545;48.224;11.678;2023-05-20T03:10:05;10.55;;;6.90;;
43628;SDS011;56545;48.224;11.678;2023-05-20T03:12:32;10.23;;;6.47;;
43628;SDS011;56545;48.224;11.678;2023-05-20T03:14:58;10.40;;;6.90;;
43628;SDS011;56545;48.224;11.678;2023-05-20T03:17:24;10.55;;;6.85;;
43628;SDS011;56545;48.224;11.678;2023-05-20T03:19:50;8.52;;;6.70;;
43628;SDS011;56545;48.224;11.678;2023-05-20T03:22:16;9.88;;;6.97;;
43628;SDS011;56545;48.224;11.678;2023-05-20T03:24:42;10.15;;;6.93;;
43628;SDS011;56545;48.224;11.678;2023-05-20T03:27:09;9.52;;;6.72;;
43628;SDS011;56545;48.224;11.678;2023-05-20T03:29:35;10.13;;;7.85;;
43628;SDS011;56545;48.224;11.678;2023-05-20T03:32:01;9.82;;;7.03;;
43628;SDS011;56545;48.224;11.678;2023-05-20T03:34:27;11.43;;;7.63;;
43628;SDS011;56545;48.224;11.678;2023-05-20T03:36:54;10.70;;;7.65;;
43628;SDS011;56545;48.224;11.678;2023-05-20T03:39:21;12.52;;;7.68;;
43628;SDS011;56545;48.224;11.678;2023-05-20T03:41:47;11.68;;;7.38;;
43628;SDS011;56545;48.224;11.678;2023-05-20T03:44:13;9.32;;;7.40;;
43628;SDS011;56545;48.224;11.678;2023-05-20T03:46:38;12.10;;;7.78;;
43628;SDS011;56545;48.224;11.678;2023-05-20T03:49:04;11.23;;;7.95;;
43628;SDS011;56545;48.224;11.678;2023-05-20T03:51:30;10.40;;;7.90;;
43628;SDS011;56545;48.224;11.678;2023-05-20T03:53:56;11.02;;;7.75;;
43628;SDS011;56545;48.224;11.678;2023-05-20T03:56:22;10.43;;;7.60;;
43628;SDS011;56545;48.224;11.678;2023-05-20T03:58:48;10.60;;;8.25;;
43628;SDS011;56545;48.224;11.678;2023-05-20T04:01:15;10.60;;;7.90;;
43628;SDS011;56545;48.224;11.678;2023-05-20T04:03:41;11.13;;;7.72;;
43628;SDS011;56545;48.224;11.678;2023-05-20T04:06:07;9.57;;;7.65;;
43628;SDS011;56545;48.224;11.678;2023-05-20T04:08:33;11.18;;;8.25;;
43628;SDS011;56545;48.224;11.678;2023-05-20T04:11:02;11.82;;;7.90;;
43628;SDS011;56545;48.224;11.678;2023-05-20T04:13:28;11.52;;;7.97;;
43628;SDS011;56545;48.224;11.678;2023-05-20T04:15:54;10.63;;;8.23;;
43628;SDS011;56545;48.224;11.678;2023-05-20T04:18:20;10.90;;;7.90;;
43628;SDS011;56545;48.224;11.678;2023-05-20T04:20:45;10.63;;;7.60;;
43628;SDS011;56545;48.224;11.678;2023-05-20T04:23:11;12.15;;;8.07;;
43628;SDS011;56545;48.224;11.678;2023-05-20T04:25:37;9.38;;;7.38;;
43628;SDS011;56545;48.224;11.678;2023-05-20T04:28:05;9.63;;;7.47;;
43628;SDS011;56545;48.224;11.678;2023-05-20T04:30:31;11.00;;;7.65;;
43628;SDS011;56545;48.224;11.678;2023-05-20T04:32:57;12.35;;;8.23;;
43628;SDS011;56545;48.224;11.678;2023-05-20T04:35:26;11.32;;;8.25;;
43628;SDS011;56545;48.224;11.678;2023-05-20T04:37:53;11.32;;;7.78;;
43628;SDS011;56545;48.224;11.678;2023-05-20T04:40:19;11.82;;;8.98;;
43628;SDS011;56545;48.224;11.678;2023-05-20T04:42:45;11.68;;;8.52;;
43628;SDS011;56545;48.224;11.678;2023-05-20T04:45:11;11.52;;;8.88;;
43628;SDS011;56545;48.224;11.678;2023-05-20T04:47:38;11.50;;;8.45;;
43628;SDS011;56545;48.224;11.678;2023-05-20T04:50:08;11.52;;;8.65;;
43628;SDS011;56545;48.224;11.678;2023-05-20T04:52:37;11.43;;;8.98;;
43628;SDS011;56545;48.224;11.678;2023-05-20T04:55:04;11.95;;;8.88;;
43628;SDS011;56545;48.224;11.678;2023-05-20T04:57:33;14.63;;;9.55;;
43628;SDS011;56545;48.224;11.678;2023-05-20T05:00:00;11.90;;;9.18;;
43628;SDS011;56545;48.224;11.678;2023-05-20T05:02:26;12.13;;;9.00;;
43628;SDS011;56545;48.224;11.678;2023-05-20T05:04:52;12.27;;;8.75;;
43628;SDS011;56545;48.224;11.678;2023-05-20T05:07:18;14.75;;;9.57;;
43628;SDS011;56545;48.224;11.678;2023-05-20T05:09:44;16.45;;;9.65;;
43628;SDS011;56545;48.224;11.678;2023-05-20T05:12:10;14.20;;;11.00;;
43628;SDS011;56545;48.224;11.678;2023-05-20T05:14:35;14.75;;;10.43;;
43628;SDS011;56545;48.224;11.678;2023-05-20T05:17:01;14.80;;;11.18;;
43628;SDS011;56545;48.224;11.678;2023-05-20T05:19:27;15.02;;;11.20;;
43628;SDS011;56545;48.224;11.678;2023-05-20T05:21:53;16.52;;;11.93;;
43628;SDS011;56545;48.224;11.678;2023-05-20T05:24:19;15.13;;;11.32;;
43628;SDS011;56545;48.224;11.678;2023-05-20T05:26:45;15.13;;;11.82;;
43628;SDS011;56545;48.224;11.678;2023-05-20T05:29:11;14.38;;;11.57;;
43628;SDS011;56545;48.224;11.678;2023-05-20T05:31:37;16.42;;;11.73;;
43628;SDS011;56545;48.224;11.678;2023-05-20T05:34:03;15.13;;;12.00;;
43628;SDS011;56545;48.224;11.678;2023-05-20T05:36:31;15.90;;;12.93;;
43628;SDS011;56545;48.224;11.678;2023-05-20T05:38:57;17.35;;;13.38;;
43628;SDS011;56545;48.224;11.678;2023-05-20T05:41:23;19.20;;;13.45;;
43628;SDS011;56545;48.224;11.678;2023-05-20T05:43:49;16.63;;;13.38;;
43628;SDS011;56545;48.224;11.678;2023-05-20T05:46:15;17.02;;;14.07;;
43628;SDS011;56545;48.224;11.678;2023-05-20T05:48:41;19.25;;;15.10;;
43628;SDS011;56545;48.224;11.678;2023-05-20T05:51:12;17.25;;;14.07;;
43628;SDS011;56545;48.224;11.678;2023-05-20T05:53:38;16.13;;;13.38;;
43628;SDS011;56545;48.224;11.678;2023-05-20T05:56:04;16.65;;;12.93;;
43628;SDS011;56545;48.224;11.678;2023-05-20T05:58:31;16.88;;;13.32;;
43628;SDS011;56545;48.224;11.678;2023-05-20T06:00:57;17.52;;;14.27;;
43628;SDS011;56545;48.224;11.678;2023-05-20T06:03:23;15.43;;;13.50;;
43628;SDS011;56545;48.224;11.678;2023-05-20T06:05:49;17.65;;;14.38;;
43628;SDS011;56545;48.224;11.678;2023-05-20T06:08:15;16.23;;;12.38;;
43628;SDS011;56545;48.224;11.678;2023-05-20T06:10:40;16.05;;;13.43;;
43628;SDS011;56545;48.224;11.678;2023-05-20T06:13:11;16.25;;;12.80;;
43628;SDS011;56545;48.224;11.678;2023-05-20T06:15:38;15.45;;;13.07;;
43628;SDS011;56545;48.224;11.678;2023-05-20T06:18:04;16.63;;;14.27;;
43628;SDS011;56545;48.224;11.678;2023-05-20T06:20:30;15.02;;;12.88;;
43628;SDS011;56545;48.224;11.678;2023-05-20T06:22:56;15.68;;;12.50;;
43628;SDS011;56545;48.224;11.678;2023-05-20T06:25:22;17.40;;;13.10;;
43628;SDS011;56545;48.224;11.678;2023-05-20T06:27:49;13.50;;;11.88;;
43628;SDS011;56545;48.224;11.678;2023-05-20T06:30:15;13.98;;;11.02;;
43628;SDS011;56545;48.224;11.678;2023-05-20T06:32:41;14.32;;;11.10;;
43628;SDS011;56545;48.224;11.678;2023-05-20T06:35:07;13.77;;;10.82;;
43628;SDS011;56545;48.224;11.678;2023-05-20T06:37:34;13.10;;;11.18;;
43628;SDS011;56545;48.224;11.678;2023-05-20T06:39:59;16.05;;;11.30;;
43628;SDS011;56545;48.224;11.678;2023-05-20T06:42:25;13.70;;;11.25;;
43628;SDS011;56545;48.224;11.678;2023-05-20T06:44:51;13.10;;;11.13;;
43628;SDS011;56545;48.224;11.678;2023-05-20T06:47:17;12.20;;;10.90;;
43628;SDS011;56545;48.224;11.678;2023-05-20T06:49:44;12.57;;;10.13;;
43628;SDS011;56545;48.224;11.678;2023-05-20T06:52:10;13.82;;;10.45;;
43628;SDS011;56545;48.224;11.678;2023-05-20T06:54:39;13.85;;;10.60;;
43628;SDS011;56545;48.224;11.678;2023-05-20T06:57:08;13.10;;;10.73;;
43628;SDS011;56545;48.224;11.678;2023-05-20T06:59:35;11.85;;;9.68;;
43628;SDS011;56545;48.224;11.678;2023-05-20T07:02:01;12.45;;;10.35;;
43628;SDS011;56545;48.224;11.678;2023-05-20T07:04:28;12.20;;;10.90;;
43628;SDS011;56545;48.224;11.678;2023-05-20T07:06:53;12.75;;;10.20;;
43628;SDS011;56545;48.224;11.678;2023-05-20T07:09:19;13.40;;;9.70;;
43628;SDS011;56545;48.224;11.678;2023-05-20T07:11:45;12.20;;;9.77;;
43628;SDS011;56545;48.224;11.678;2023-05-20T07:14:11;11.02;;;9.27;;
43628;SDS011;56545;48.224;11.678;2023-05-20T07:16:37;10.80;;;8.77;;
43628;SDS011;56545;48.224;11.678;2023-05-20T07:19:03;9.98;;;7.90;;
43628;SDS011;56545;48.224;11.678;2023-05-20T07:21:29;10.60;;;8.57;;
43628;SDS011;56545;48.224;11.678;2023-05-20T07:23:55;9.48;;;7.75;;
43628;SDS011;56545;48.224;11.678;2023-05-20T07:26:21;9.15;;;7.18;;
43628;SDS011;56545;48.224;11.678;2023-05-20T07:28:47;9.68;;;7.93;;
43628;SDS011;56545;48.224;11.678;2023-05-20T07:31:13;10.73;;;7.40;;
43628;SDS011;56545;48.224;11.678;2023-05-20T07:33:39;11.10;;;7.40;;
43628;SDS011;56545;48.224;11.678;2023-05-20T07:36:05;10.15;;;7.28;;
43628;SDS011;56545;48.224;11.678;2023-05-20T07:38:31;9.27;;;6.88;;
43628;SDS011;56545;48.224;11.678;2023-05-20T07:40:57;11.00;;;7.28;;
43628;SDS011;56545;48.224;11.678;2023-05-20T07:43:23;8.75;;;6.90;;
43628;SDS011;56545;48.224;11.678;2023-05-20T07:45:49;9.10;;;7.03;;
43628;SDS011;56545;48.224;11.678;2023-05-20T07:48:15;8.63;;;6.60;;
43628;SDS011;56545;48.224;11.678;2023-05-20T07:50:41;10.82;;;7.20;;
43628;SDS011;56545;48.224;11.678;2023-05-20T07:53:07;11.10;;;6.60;;
43628;SDS011;56545;48.224;11.678;2023-05-20T07:55:33;11.32;;;7.03;;
43628;SDS011;56545;48.224;11.678;2023-05-20T07:58:03;9.27;;;6.70;;
43628;SDS011;56545;48.224;11.678;2023-05-20T08:00:29;9.10;;;6.40;;
43628;SDS011;56545;48.224;11.678;2023-05-20T08:02:55;11.60;;;6.90;;
43628;SDS011;56545;48.224;11.678;2023-05-20T08:05:21;8.07;;;6.50;;
43628;SDS011;56545;48.224;11.678;2023-05-20T08:07:47;9.07;;;6.55;;
43628;SDS011;56545;48.224;11.678;2023-05-20T08:10:13;10.48;;;6.35;;
43628;SDS011;56545;48.224;11.678;2023-05-20T08:12:39;10.32;;;6.13;;
43628;SDS011;56545;48.224;11.678;2023-05-20T08:15:05;7.63;;;5.78;;
43628;SDS011;56545;48.224;11.678;2023-05-20T08:17:32;8.65;;;5.65;;
43628;SDS011;56545;48.224;11.678;2023-05-20T08:20:00;10.02;;;5.32;;
43628;SDS011;56545;48.224;11.678;2023-05-20T08:22:26;8.68;;;4.80;;
43628;SDS011;56545;48.224;11.678;2023-05-20T08:24:52;8.80;;;5.20;;
43628;SDS011;56545;48.224;11.678;2023-05-20T08:27:18;7.10;;;5.22;;
43628;SDS011;56545;48.224;11.678;2023-05-20T08:29:44;9.18;;;5.28;;
43628;SDS011;56545;48.224;11.678;2023-05-20T08:32:10;7.07;;;4.80;;
43628;SDS011;56545;48.224;11.678;2023-05-20T08:34:36;8.45;;;5.10;;
43628;SDS011;56545;48.224;11.678;2023-05-20T08:37:02;7.85;;;5.28;;
43628;SDS011;56545;48.224;11.678;2023-05-20T08:39:28;8.80;;;5.63;;
43628;SDS011;56545;48.224;11.678;2023-05-20T08:41:53;10.00;;;5.50;;
43628;SDS011;56545;48.224;11.678;2023-05-20T08:44:20;7.03;;;4.57;;
43628;SDS011;56545;48.224;11.678;2023-05-20T08:46:46;7.50;;;4.80;;
43628;SDS011;56545;48.224;11.678;2023-05-20T08:49:13;8.45;;;5.20;;
43628;SDS011;56545;48.224;11.678;2023-05-20T08:51:39;8.23;;;4.78;;
43628;SDS011;56545;48.224;11.678;2023-05-20T08:54:06;8.02;;;5.20;;
43628;SDS011;56545;48.224;11.678;2023-05-20T08:56:33;8.90;;;5.15;;
43628;SDS011;56545;48.224;11.678;2023-05-20T08:59:00;7.72;;;5.00;;
43628;SDS011;56545;48.224;11.678;2023-05-20T09:01:27;7.53;;;4.93;;
43628;SDS011;56545;48.224;11.678;2023-05-20T09:03:53;7.03;;;4.90;;
43628;SDS011;56545;48.224;11.678;2023-05-20T09:06:19;7.82;;;4.97;;
43628;SDS011;56545;48.224;11.678;2023-05-20T09:08:47;7.55;;;4.43;;
43628;SDS011;56545;48.224;11.678;2023-05-20T09:11:14;8.23;;;4.80;;
43628;SDS011;56545;48.224;11.678;2023-05-20T09:13:40;8.25;;;5.20;;
43628;SDS011;56545;48.224;11.678;2023-05-20T09:16:08;7.05;;;5.13;;
43628;SDS011;56545;48.224;11.678;2023-05-20T09:18:37;6.72;;;4.72;;
43628;SDS011;56545;48.224;11.678;2023-05-20T09:21:04;6.97;;;4.57;;
43628;SDS011;56545;48.224;11.678;2023-05-20T09:23:31;6.95;;;4.93;;
43628;SDS011;56545;48.224;11.678;2023-05-20T09:25:59;8.43;;;4.93;;
43628;SDS011;56545;48.224;11.678;2023-05-20T09:28:28;7.95;;;4.80;;
43628;SDS011;56545;48.224;11.678;2023-05-20T09:31:00;7.45;;;4.70;;
43628;SDS011;56545;48.224;11.678;2023-05-20T09:33:26;8.18;;;4.80;;
43628;SDS011;56545;48.224;11.678;2023-05-20T09:36:02;6.88;;;3.88;;
43628;SDS011;56545;48.224;11.678;2023-05-20T09:38:30;6.55;;;4.40;;
43628;SDS011;56545;48.224;11.678;2023-05-20T09:41:05;6.37;;;3.90;;
43628;SDS011;56545;48.224;11.678;2023-05-20T09:43:36;6.15;;;3.88;;
43628;SDS011;56545;48.224;11.678;2023-05-20T09:46:04;6.65;;;4.00;;
43628;SDS011;56545;48.224;11.678;2023-05-20T09:48:31;6.97;;;3.90;;
43628;SDS011;56545;48.224;11.678;2023-05-20T09:51:04;7.60;;;4.10;;
43628;SDS011;56545;48.224;11.678;2023-05-20T09:53:31;5.90;;;3.72;;
43628;SDS011;56545;48.224;11.678;2023-05-20T09:55:57;5.28;;;3.50;;
43628;SDS011;56545;48.224;11.678;2023-05-20T09:58:23;6.80;;;3.95;;
43628;SDS011;56545;48.224;11.678;2023-05-20T10:00:53;8.15;;;4.57;;
43628;SDS011;56545;48.224;11.678;2023-05-20T10:03:20;6.85;;;3.80;;
43628;SDS011;56545;48.224;11.678;2023-05-20T10:05:56;7.28;;;4.40;;
43628;SDS011;56545;48.224;11.678;2023-05-20T10:17:03;9.43;;;4.50;;
43628;SDS011;56545;48.224;11.678;2023-05-20T10:19:49;7.53;;;4.25;;
43628;SDS011;56545;48.224;11.678;2023-05-20T10:22:26;7.10;;;3.90;;
43628;SDS011;56545;48.224;11.678;2023-05-20T10:24:57;6.53;;;3.42;;
43628;SDS011;56545;48.224;11.678;2023-05-20T10:27:24;5.53;;;3.30;;
43628;SDS011;56545;48.224;11.678;2023-05-20T10:29:51;4.85;;;3.00;;
43628;SDS011;56545;48.224;11.678;2023-05-20T10:32:23;4.97;;;2.97;;
43628;SDS011;56545;48.224;11.678;2023-05-20T10:34:49;6.63;;;3.40;;
43628;SDS011;56545;48.224;11.678;2023-05-20T10:37:25;6.10;;;3.10;;
43628;SDS011;56545;48.224;11.678;2023-05-20T10:42:49;5.85;;;3.22;;
43628;SDS011;56545;48.224;11.678;2023-05-20T10:45:25;4.75;;;2.90;;
43628;SDS011;56545;48.224;11.678;2023-05-20T10:47:55;5.30;;;2.97;;
43628;SDS011;56545;48.224;11.678;2023-05-20T10:50:25;5.13;;;3.00;;
43628;SDS011;56545;48.224;11.678;2023-05-20T10:53:02;5.80;;;3.13;;
43628;SDS011;56545;48.224;11.678;2023-05-20T10:55:34;5.82;;;2.95;;
43628;SDS011;56545;48.224;11.678;2023-05-20T10:58:02;5.30;;;2.85;;
43628;SDS011;56545;48.224;11.678;2023-05-20T11:00:29;5.55;;;3.05;;
43628;SDS011;56545;48.224;11.678;2023-05-20T11:02:56;5.50;;;2.70;;
43628;SDS011;56545;48.224;11.678;2023-05-20T11:05:22;4.38;;;2.60;;
43628;SDS011;56545;48.224;11.678;2023-05-20T11:07:50;4.28;;;2.80;;
43628;SDS011;56545;48.224;11.678;2023-05-20T11:10:26;5.63;;;2.90;;
43628;SDS011;56545;48.224;11.678;2023-05-20T11:12:52;4.97;;;2.85;;
43628;SDS011;56545;48.224;11.678;2023-05-20T11:15:21;6.03;;;2.97;;
43628;SDS011;56545;48.224;11.678;2023-05-20T11:17:52;4.53;;;2.85;;
43628;SDS011;56545;48.224;11.678;2023-05-20T11:20:19;5.88;;;3.20;;
43628;SDS011;56545;48.224;11.678;2023-05-20T11:22:49;9.73;;;3.60;;
43628;SDS011;56545;48.224;11.678;2023-05-20T11:25:16;5.43;;;3.13;;
43628;SDS011;56545;48.224;11.678;2023-05-20T11:27:43;10.27;;;3.13;;
43628;SDS011;56545;48.224;11.678;2023-05-20T11:30:10;6.22;;;3.25;;
43628;SDS011;56545;48.224;11.678;2023-05-20T11:32:40;9.15;;;3.95;;
43628;SDS011;56545;48.224;11.678;2023-05-20T11:35:07;6.55;;;3.65;;
43628;SDS011;56545;48.224;11.678;2023-05-20T11:37:43;7.18;;;3.80;;
43628;SDS011;56545;48.224;11.678;2023-05-20T11:40:09;6.15;;;3.53;;
43628;SDS011;56545;48.224;11.678;2023-05-20T11:42:37;7.05;;;3.80;;
43628;SDS011;56545;48.224;11.678;2023-05-20T11:45:03;9.48;;;4.20;;
43628;SDS011;56545;48.224;11.678;2023-05-20T11:47:29;6.90;;;4.40;;
43628;SDS011;56545;48.224;11.678;2023-05-20T11:49:56;10.80;;;4.13;;
43628;SDS011;56545;48.224;11.678;2023-05-20T11:52:22;8.57;;;3.83;;
43628;SDS011;56545;48.224;11.678;2023-05-20T11:54:51;7.07;;;4.40;;
43628;SDS011;56545;48.224;11.678;2023-05-20T11:57:18;7.55;;;4.30;;
43628;SDS011;56545;48.224;11.678;2023-05-20T11:59:44;7.97;;;4.22;;
43628;SDS011;56545;48.224;11.678;2023-05-20T12:02:11;6.97;;;4.25;;
43628;SDS011;56545;48.224;11.678;2023-05-20T12:04:36;7.05;;;4.50;;
43628;SDS011;56545;48.224;11.678;2023-05-20T12:07:02;8.40;;;4.35;;
43628;SDS011;56545;48.224;11.678;2023-05-20T12:09:33;7.18;;;4.45;;
43628;SDS011;56545;48.224;11.678;2023-05-20T12:11:59;6.70;;;4.60;;
43628;SDS011;56545;48.224;11.678;2023-05-20T12:14:25;6.63;;;4.38;;
43628;SDS011;56545;48.224;11.678;2023-05-20T12:16:51;6.75;;;4.50;;
43628;SDS011;56545;48.224;11.678;2023-05-20T12:19:17;6.70;;;4.75;;
43628;SDS011;56545;48.224;11.678;2023-05-20T12:21:43;9.23;;;5.20;;
43628;SDS011;56545;48.224;11.678;2023-05-20T12:24:11;7.82;;;5.40;;
43628;SDS011;56545;48.224;11.678;2023-05-20T12:26:37;8.88;;;5.35;;
43628;SDS011;56545;48.224;11.678;2023-05-20T12:29:04;7.78;;;5.20;;
43628;SDS011;56545;48.224;11.678;2023-05-20T12:31:30;7.93;;;5.50;;
43628;SDS011;56545;48.224;11.678;2023-05-20T12:33:56;7.60;;;5.28;;
43628;SDS011;56545;48.224;11.678;2023-05-20T12:36:22;7.43;;;5.82;;
43628;SDS011;56545;48.224;11.678;2023-05-20T12:38:48;7.75;;;5.78;;
43628;SDS011;56545;48.224;11.678;2023-05-20T12:41:14;8.93;;;6.00;;
43628;SDS011;56545;48.224;11.678;2023-05-20T12:43:40;8.15;;;5.53;;
43628;SDS011;56545;48.224;11.678;2023-05-20T12:46:06;7.93;;;5.32;;
43628;SDS011;56545;48.224;11.678;2023-05-20T12:48:32;9.98;;;5.80;;
43628;SDS011;56545;48.224;11.678;2023-05-20T12:50:58;9.57;;;5.35;;
43628;SDS011;56545;48.224;11.678;2023-05-20T12:53:24;9.18;;;5.43;;
43628;SDS011;56545;48.224;11.678;2023-05-20T12:55:50;8.57;;;5.43;;
43628;SDS011;56545;48.224;11.678;2023-05-20T12:58:16;8.32;;;5.63;;
43628;SDS011;56545;48.224;11.678;2023-05-20T13:00:42;7.88;;;5.68;;
43628;SDS011;56545;48.224;11.678;2023-05-20T13:03:08;8.88;;;5.72;;
43628;SDS011;56545;48.224;11.678;2023-05-20T13:05:35;11.13;;;5.38;;
43628;SDS011;56545;48.224;11.678;2023-05-20T13:08:00;9.23;;;5.78;;
43628;SDS011;56545;48.224;11.678;2023-05-20T13:10:27;9.15;;;6.07;;
43628;SDS011;56545;48.224;11.678;2023-05-20T13:12:53;8.55;;;5.47;;
43628;SDS011;56545;48.224;11.678;2023-05-20T13:15:20;9.73;;;5.22;;
43628;SDS011;56545;48.224;11.678;2023-05-20T13:17:46;9.02;;;5.35;;
43628;SDS011;56545;48.224;11.678;2023-05-20T13:20:12;11.52;;;7.85;;
43628;SDS011;56545;48.224;11.678;2023-05-20T13:22:38;10.60;;;5.95;;
43628;SDS011;56545;48.224;11.678;2023-05-20T13:25:04;10.27;;;6.25;;
43628;SDS011;56545;48.224;11.678;2023-05-20T13:27:30;8.05;;;5.47;;
43628;SDS011;56545;48.224;11.678;2023-05-20T13:29:56;9.40;;;6.45;;
43628;SDS011;56545;48.224;11.678;2023-05-20T13:32:22;8.82;;;5.93;;
43628;SDS011;56545;48.224;11.678;2023-05-20T13:34:48;7.68;;;5.78;;
43628;SDS011;56545;48.224;11.678;2023-05-20T13:37:14;9.65;;;5.90;;
43628;SDS011;56545;48.224;11.678;2023-05-20T13:39:40;8.25;;;5.60;;
43628;SDS011;56545;48.224;11.678;2023-05-20T13:42:07;10.27;;;6.32;;
43628;SDS011;56545;48.224;11.678;2023-05-20T13:44:33;9.30;;;5.75;;
43628;SDS011;56545;48.224;11.678;2023-05-20T13:46:59;8.50;;;5.72;;
43628;SDS011;56545;48.224;11.678;2023-05-20T13:49:25;9.15;;;5.95;;
43628;SDS011;56545;48.224;11.678;2023-05-20T13:51:51;10.13;;;5.70;;
43628;SDS011;56545;48.224;11.678;2023-05-20T13:54:16;10.80;;;6.07;;
43628;SDS011;56545;48.224;11.678;2023-05-20T13:56:44;11.00;;;6.28;;
43628;SDS011;56545;48.224;11.678;2023-05-20T13:59:10;9.40;;;5.72;;
43628;SDS011;56545;48.224;11.678;2023-05-20T14:01:36;10.63;;;6.03;;
43628;SDS011;56545;48.224;11.678;2023-05-20T14:04:02;9.80;;;6.70;;
43628;SDS011;56545;48.224;11.678;2023-05-20T14:06:27;8.93;;;5.97;;
43628;SDS011;56545;48.224;11.678;2023-05-20T14:08:55;9.95;;;6.07;;
43628;SDS011;56545;48.224;11.678;2023-05-20T14:11:21;13.32;;;6.05;;
43628;SDS011;56545;48.224;11.678;2023-05-20T14:13:47;8.52;;;5.90;;
43628;SDS011;56545;48.224;11.678;2023-05-20T14:16:13;8.60;;;5.95;;
43628;SDS011;56545;48.224;11.678;2023-05-20T14:18:39;9.68;;;6.18;;
43628;SDS011;56545;48.224;11.678;2023-05-20T14:21:05;10.43;;;6.20;;
43628;SDS011;56545;48.224;11.678;2023-05-20T14:23:31;9.70;;;6.10;;
43628;SDS011;56545;48.224;11.678;2023-05-20T14:25:57;9.85;;;6.15;;
43628;SDS011;56545;48.224;11.678;2023-05-20T14:28:23;8.98;;;6.05;;
43628;SDS011;56545;48.224;11.678;2023-05-20T14:30:49;9.25;;;6.30;;
43628;SDS011;56545;48.224;11.678;2023-05-20T14:33:17;11.43;;;7.05;;
43628;SDS011;56545;48.224;11.678;2023-05-20T14:35:43;9.32;;;7.18;;
43628;SDS011;56545;48.224;11.678;2023-05-20T14:38:08;8.52;;;6.53;;
43628;SDS011;56545;48.224;11.678;2023-05-20T14:40:35;8.60;;;6.13;;